Time;durP1;ratioP1;P1;durP2;ratioP2;P2;SDS_P1;SDS_P2;PMS_P1;PMS_P2;Temp;Humidity;BMP_temperature;BMP_pressure;BME280_temperature;BME280_humidity;BME280_pressure;Samples;Min_cycle;Max_cycle;Signal;HPM_P1;HPM_P2
2022/07/22 02:54:34;;;;;;;10.50;6.97;;;16.40;99.90;;;;;;5150133;27;20941;-66
2022/07/22 02:57:01;;;;;;;9.23;7.13;;;16.70;99.90;;;;;;5150313;27;20634;-67
2022/07/22 02:59:28;;;;;;;13.77;7.07;;;16.70;99.90;;;;;;5150002;27;20206;-67
2022/07/22 03:01:55;;;;;;;11.03;6.83;;;16.60;99.90;;;;;;5149257;27;20274;-66
2022/07/22 03:04:22;;;;;;;10.70;6.70;;;16.60;99.90;;;;;;5149954;27;20263;-66
2022/07/22 03:06:49;;;;;;;11.77;6.90;;;16.60;99.90;;;;;;5150344;27;20293;-66
2022/07/22 03:09:16;;;;;;;9.80;7.00;;;16.50;99.90;;;;;;5149870;27;20206;-67
2022/07/22 03:11:44;;;;;;;12.43;7.43;;;16.60;99.90;;;;;;5142541;27;20207;-66
2022/07/22 03:14:12;;;;;;;8.87;6.73;;;16.60;99.90;;;;;;5138149;27;20291;-66
2022/07/22 03:16:39;;;;;;;11.77;6.77;;;16.70;99.90;;;;;;5138513;27;20205;-66
2022/07/22 03:19:06;;;;;;;10.77;7.00;;;16.70;99.90;;;;;;5139659;27;20239;-67
2022/07/22 03:21:32;;;;;;;11.23;7.00;;;16.70;99.90;;;;;;5136549;27;20207;-66
2022/07/22 03:23:59;;;;;;;8.97;6.50;;;16.70;99.90;;;;;;5135105;27;20284;-66
2022/07/22 03:26:26;;;;;;;9.93;7.20;;;16.80;99.90;;;;;;5117405;28;20228;-67
2022/07/22 03:28:54;;;;;;;9.30;7.00;;;16.80;99.90;;;;;;5126074;28;20205;-66
2022/07/22 03:31:21;;;;;;;11.37;7.63;;;16.80;99.90;;;;;;5126583;28;20203;-68
2022/07/22 03:33:48;;;;;;;15.60;8.03;;;16.80;99.90;;;;;;5126961;28;20196;-70
2022/07/22 03:36:15;;;;;;;13.83;8.17;;;16.90;99.90;;;;;;5122262;28;20196;-66
2022/07/22 03:38:42;;;;;;;11.97;7.40;;;16.90;99.90;;;;;;5126377;28;20763;-66
2022/07/22 03:41:09;;;;;;;10.80;7.33;;;16.90;99.90;;;;;;5125594;28;20710;-68
2022/07/22 03:43:36;;;;;;;11.47;8.27;;;17.00;99.90;;;;;;5126903;28;20222;-66
2022/07/22 03:46:04;;;;;;;12.97;8.47;;;17.00;99.90;;;;;;5127844;28;20784;-66
2022/07/22 03:48:31;;;;;;;12.13;7.43;;;17.00;99.90;;;;;;5128854;28;20294;-67
2022/07/22 03:50:58;;;;;;;16.53;8.77;;;17.00;99.90;;;;;;5128529;27;20717;-66
2022/07/22 03:53:25;;;;;;;15.60;8.53;;;17.00;99.90;;;;;;5125802;28;20321;-66
2022/07/22 03:55:52;;;;;;;10.53;8.20;;;17.10;99.90;;;;;;5114676;28;20294;-66
2022/07/22 03:58:19;;;;;;;14.73;8.40;;;17.00;99.90;;;;;;5115117;28;20687;-67
2022/07/22 04:00:46;;;;;;;13.60;8.40;;;17.10;99.90;;;;;;5114896;28;20290;-67
2022/07/22 04:03:14;;;;;;;14.13;8.97;;;17.20;99.90;;;;;;5112999;28;20223;-66
2022/07/22 04:05:41;;;;;;;13.57;8.90;;;17.20;99.90;;;;;;5114886;28;20634;-65
2022/07/22 04:08:08;;;;;;;10.63;7.90;;;17.30;99.90;;;;;;5114674;28;20245;-68
2022/07/22 04:10:35;;;;;;;12.20;8.80;;;17.30;99.90;;;;;;5114581;28;20262;-68
2022/07/22 04:13:02;;;;;;;11.57;8.03;;;17.40;99.90;;;;;;5113916;28;20254;-67
2022/07/22 04:15:29;;;;;;;12.43;8.37;;;17.40;99.90;;;;;;5114859;28;20210;-68
2022/07/22 04:17:56;;;;;;;10.27;7.20;;;17.40;99.90;;;;;;5114606;28;20719;-67
2022/07/22 04:20:24;;;;;;;13.23;8.33;;;17.40;99.90;;;;;;5114367;28;20301;-67
2022/07/22 04:22:51;;;;;;;10.10;7.33;;;17.50;99.90;;;;;;5112555;28;20212;-67
2022/07/22 04:25:18;;;;;;;13.20;8.10;;;17.40;99.90;;;;;;5114173;28;20209;-66
2022/07/22 04:27:45;;;;;;;12.83;7.97;;;17.40;99.90;;;;;;5114235;28;20291;-67
2022/07/22 04:30:12;;;;;;;10.73;7.80;;;17.30;99.90;;;;;;5114305;28;20204;-66
2022/07/22 04:32:39;;;;;;;10.90;7.93;;;17.40;99.90;;;;;;5113582;28;20698;-66
2022/07/22 04:35:07;;;;;;;11.40;7.57;;;17.40;99.90;;;;;;5114232;28;20261;-66
2022/07/22 04:37:35;;;;;;;11.43;7.47;;;17.50;99.90;;;;;;5114229;28;20264;-65
2022/07/22 04:40:02;;;;;;;11.70;7.67;;;17.50;99.90;;;;;;5113108;28;20294;-66
2022/07/22 04:42:29;;;;;;;12.73;8.00;;;17.50;99.90;;;;;;5112700;28;20671;-68
2022/07/22 04:44:56;;;;;;;12.67;8.07;;;17.50;99.90;;;;;;5114005;28;20204;-66
2022/07/22 04:47:22;;;;;;;11.30;7.77;;;17.60;99.90;;;;;;5113998;28;20200;-67
2022/07/22 04:49:49;;;;;;;12.00;7.63;;;17.70;99.90;;;;;;5113325;28;20221;-66
2022/07/22 04:52:16;;;;;;;13.23;8.23;;;17.60;99.90;;;;;;5112828;28;20567;-67
2022/07/22 04:54:45;;;;;;;9.40;7.20;;;17.70;99.90;;;;;;5113795;28;20606;-67
2022/07/22 04:57:11;;;;;;;14.27;8.63;;;17.80;99.90;;;;;;5113870;28;20669;-67
2022/07/22 04:59:38;;;;;;;11.07;7.77;;;17.90;99.90;;;;;;5112068;28;20720;-67
2022/07/22 05:02:06;;;;;;;11.70;7.37;;;18.00;99.90;;;;;;5113107;28;20203;-66
2022/07/22 05:04:33;;;;;;;9.57;6.57;;;18.20;99.90;;;;;;5111873;28;20269;-65
2022/07/22 05:06:59;;;;;;;9.57;7.43;;;18.20;99.90;;;;;;5111654;28;20668;-68
2022/07/22 05:09:27;;;;;;;10.00;6.83;;;18.30;99.90;;;;;;5113742;28;20271;-66
2022/07/22 05:11:55;;;;;;;9.93;6.77;;;18.30;99.90;;;;;;5113527;28;20207;-66
2022/07/22 05:14:22;;;;;;;7.63;6.17;;;18.50;99.90;;;;;;5113352;28;20210;-67
2022/07/22 05:16:49;;;;;;;8.33;6.13;;;18.50;99.90;;;;;;5111769;28;20289;-66
2022/07/22 05:19:16;;;;;;;8.43;6.00;;;18.60;99.90;;;;;;5113560;28;20280;-66
2022/07/22 05:21:43;;;;;;;8.23;5.90;;;18.60;99.90;;;;;;5113096;28;20210;-65
2022/07/22 05:24:10;;;;;;;8.37;6.10;;;18.80;99.90;;;;;;5113525;28;20688;-67
2022/07/22 05:26:37;;;;;;;8.70;5.70;;;18.90;99.90;;;;;;5112600;28;20293;-66
2022/07/22 05:29:05;;;;;;;8.07;5.30;;;19.00;99.90;;;;;;5112936;28;20214;-67
2022/07/22 05:31:32;;;;;;;8.83;5.80;;;19.10;99.90;;;;;;5112967;28;20305;-68
2022/07/22 05:33:59;;;;;;;6.07;4.93;;;19.10;99.90;;;;;;5111123;28;20288;-65
2022/07/22 05:36:26;;;;;;;7.07;5.20;;;19.20;99.90;;;;;;5112230;28;20243;-68
2022/07/22 05:38:53;;;;;;;10.63;5.17;;;19.30;99.90;;;;;;5113439;28;20261;-65
2022/07/22 05:41:20;;;;;;;6.17;5.00;;;19.40;99.90;;;;;;5113356;28;20209;-66
2022/07/22 05:43:47;;;;;;;6.90;4.93;;;19.50;99.90;;;;;;5112798;28;20320;-67
2022/07/22 05:46:15;;;;;;;7.30;4.90;;;19.50;99.90;;;;;;5111261;28;20709;-66
2022/07/22 05:48:42;;;;;;;5.80;4.70;;;19.60;99.90;;;;;;5112180;28;20203;-66
2022/07/22 05:51:12;;;;;;;6.10;4.27;;;19.60;99.90;;;;;;5112720;28;20761;-66
2022/07/22 05:53:40;;;;;;;6.60;4.53;;;19.70;99.90;;;;;;5112095;28;20598;-66
2022/07/22 05:56:08;;;;;;;7.53;5.53;;;19.80;99.90;;;;;;5111645;28;20203;-66
2022/07/22 05:58:35;;;;;;;6.93;5.37;;;19.90;99.90;;;;;;5112338;28;20229;-67
2022/07/22 06:01:02;;;;;;;6.23;4.53;;;19.90;99.90;;;;;;5112671;28;20257;-66
2022/07/22 06:03:30;;;;;;;7.73;4.37;;;19.90;99.90;;;;;;5112266;28;20215;-66
2022/07/22 06:05:57;;;;;;;6.80;5.10;;;20.00;99.90;;;;;;5111016;28;20286;-67
2022/07/22 06:08:24;;;;;;;7.17;4.80;;;20.10;99.90;;;;;;5112496;28;20242;-68
2022/07/22 06:10:51;;;;;;;7.77;4.50;;;20.20;99.90;;;;;;5112286;28;20516;-67
2022/07/22 06:13:18;;;;;;;4.97;4.13;;;20.20;99.90;;;;;;5112124;28;20246;-66
2022/07/22 06:15:45;;;;;;;5.70;3.90;;;20.20;99.90;;;;;;5111194;28;20250;-66
2022/07/22 06:18:12;;;;;;;7.30;4.40;;;20.30;99.90;;;;;;5111543;28;20335;-66
2022/07/22 06:20:40;;;;;;;7.43;4.47;;;20.40;99.90;;;;;;5111855;28;20299;-66
2022/07/22 06:23:07;;;;;;;5.70;4.30;;;20.50;99.90;;;;;;5112173;28;20780;-66
2022/07/22 06:25:34;;;;;;;7.00;4.13;;;20.50;99.90;;;;;;5111422;28;20669;-66
2022/07/22 06:28:01;;;;;;;6.00;4.40;;;20.60;99.90;;;;;;5111910;28;20668;-68
2022/07/22 06:30:27;;;;;;;6.47;4.67;;;20.70;99.90;;;;;;5112223;28;20255;-67
2022/07/22 06:32:54;;;;;;;9.43;4.33;;;20.80;99.90;;;;;;5111704;28;20206;-67
2022/07/22 06:35:21;;;;;;;4.73;3.93;;;20.90;99.90;;;;;;5109889;28;20202;-66
2022/07/22 06:37:50;;;;;;;5.60;3.77;;;21.00;99.90;;;;;;5091132;28;20620;-67
2022/07/22 06:40:17;;;;;;;5.57;3.67;;;21.20;99.90;;;;;;5091400;28;20204;-66
2022/07/22 06:42:43;;;;;;;3.87;3.03;;;21.30;99.90;;;;;;5091230;28;20299;-65
2022/07/22 06:45:11;;;;;;;4.90;3.97;;;21.30;99.90;;;;;;5090928;28;20228;-65
2022/07/22 06:47:37;;;;;;;3.40;2.67;;;21.40;99.90;;;;;;5111411;28;20214;-66
2022/07/22 06:50:06;;;;;;;3.90;3.10;;;21.50;99.90;;;;;;5111811;28;20306;-66
2022/07/22 06:52:33;;;;;;;7.80;3.20;;;21.50;99.90;;;;;;5111448;28;20733;-68
2022/07/22 06:55:01;;;;;;;4.63;3.07;;;21.60;99.90;;;;;;5111066;28;20203;-66
2022/07/22 06:57:28;;;;;;;4.93;2.90;;;21.60;99.90;;;;;;5111437;28;20261;-66
2022/07/22 06:59:55;;;;;;;3.13;2.80;;;21.70;99.90;;;;;;5111970;28;20298;-67
2022/07/22 07:02:22;;;;;;;3.40;2.67;;;21.70;99.90;;;;;;5111672;28;20238;-67
2022/07/22 07:04:48;;;;;;;3.60;2.77;;;21.70;99.90;;;;;;5107385;28;20327;-69
2022/07/22 07:07:15;;;;;;;4.03;2.70;;;21.80;99.90;;;;;;5109818;28;20543;-70
2022/07/22 07:09:42;;;;;;;5.17;2.87;;;21.80;99.90;;;;;;5112150;28;20234;-69
2022/07/22 07:12:10;;;;;;;5.70;2.67;;;21.80;99.90;;;;;;5115321;28;20237;-70
2022/07/22 07:14:37;;;;;;;5.80;2.40;;;21.80;99.90;;;;;;5093977;28;20200;-69
2022/07/22 07:17:04;;;;;;;3.37;2.40;;;21.80;99.90;;;;;;5102939;28;20295;-69
2022/07/22 07:19:31;;;;;;;3.70;2.50;;;21.90;99.90;;;;;;5111402;28;20558;-69
2022/07/22 07:21:58;;;;;;;5.90;2.53;;;21.90;99.90;;;;;;5111244;28;20207;-70
2022/07/22 07:24:25;;;;;;;2.83;2.50;;;22.00;99.90;;;;;;5111207;28;20316;-70
2022/07/22 07:26:52;;;;;;;4.13;2.80;;;22.10;99.90;;;;;;5098049;28;20196;-69
2022/07/22 07:29:20;;;;;;;4.47;2.70;;;22.20;99.90;;;;;;5110346;28;20210;-69
2022/07/22 07:31:47;;;;;;;4.20;3.00;;;22.30;99.90;;;;;;5114265;28;20252;-73
2022/07/22 07:34:14;;;;;;;4.73;2.57;;;22.40;99.90;;;;;;5114919;28;20202;-70
2022/07/22 07:36:41;;;;;;;3.40;3.10;;;22.40;99.90;;;;;;5114332;28;20476;-70
2022/07/22 07:39:08;;;;;;;3.63;2.60;;;22.50;99.90;;;;;;5114563;28;20210;-69
2022/07/22 07:41:35;;;;;;;3.47;2.70;;;22.50;99.90;;;;;;5113115;28;20209;-72
2022/07/22 07:44:01;;;;;;;5.83;3.10;;;22.50;99.90;;;;;;5118334;27;20251;-70
2022/07/22 07:46:30;;;;;;;3.03;2.33;;;22.60;99.90;;;;;;5110975;28;20235;-71
2022/07/22 07:48:56;;;;;;;4.40;2.70;;;22.70;99.90;;;;;;5114455;28;20306;-71
2022/07/22 07:51:23;;;;;;;2.70;2.43;;;22.70;99.90;;;;;;5114564;28;20231;-72
2022/07/22 07:53:51;;;;;;;3.53;2.27;;;22.70;99.90;;;;;;5113533;28;20233;-72
2022/07/22 07:56:18;;;;;;;3.73;2.27;;;22.80;99.90;;;;;;5114702;28;20288;-71
2022/07/22 07:58:45;;;;;;;3.40;2.30;;;22.80;99.90;;;;;;5111578;28;20204;-72
2022/07/22 08:01:11;;;;;;;2.93;2.30;;;22.90;99.90;;;;;;5104522;28;20282;-73
2022/07/22 08:03:40;;;;;;;3.80;2.20;;;22.90;99.90;;;;;;5105370;27;20559;-72
2022/07/22 08:06:07;;;;;;;3.73;2.20;;;22.90;99.90;;;;;;5104285;28;20208;-72
2022/07/22 08:08:34;;;;;;;3.50;2.13;;;23.00;99.90;;;;;;5101197;28;20249;-73
2022/07/22 08:11:01;;;;;;;4.33;2.30;;;23.00;99.90;;;;;;5105079;28;20330;-72
2022/07/22 08:13:28;;;;;;;4.00;2.30;;;23.00;99.90;;;;;;5106100;28;20606;-75
2022/07/22 08:15:55;;;;;;;2.60;2.40;;;23.10;99.90;;;;;;5103146;28;20861;-73
2022/07/22 08:18:22;;;;;;;4.30;2.50;;;23.10;99.90;;;;;;5103084;28;20233;-72
2022/07/22 08:20:50;;;;;;;4.27;2.40;;;23.00;99.90;;;;;;5103478;28;20193;-72
2022/07/22 08:23:17;;;;;;;20.33;2.50;;;23.10;99.90;;;;;;5102895;28;20253;-72
2022/07/22 08:25:44;;;;;;;3.73;2.40;;;23.20;99.90;;;;;;5105904;28;20821;-72
2022/07/22 08:28:11;;;;;;;3.20;2.27;;;23.30;99.90;;;;;;5108921;28;20287;-71
2022/07/22 08:30:39;;;;;;;3.00;2.47;;;23.30;99.90;;;;;;5113943;28;20203;-72
2022/07/22 08:33:06;;;;;;;3.83;2.47;;;23.40;99.90;;;;;;5104486;28;20240;-72
2022/07/22 08:35:33;;;;;;;4.87;2.57;;;23.40;99.90;;;;;;5111822;28;20282;-72
2022/07/22 08:38:01;;;;;;;15.40;2.67;;;23.40;99.90;;;;;;5112187;28;20301;-72
2022/07/22 08:40:28;;;;;;;4.57;2.70;;;23.50;99.90;;;;;;5113466;28;20266;-70
2022/07/22 08:42:55;;;;;;;3.87;2.60;;;23.50;99.90;;;;;;5103150;28;20719;-71
2022/07/22 08:45:22;;;;;;;2.50;2.30;;;23.50;99.90;;;;;;5111210;28;20230;-72
2022/07/22 08:47:51;;;;;;;3.93;2.33;;;23.60;99.90;;;;;;5113949;28;20211;-70
2022/07/22 08:50:19;;;;;;;6.30;2.30;;;23.60;99.90;;;;;;5111151;28;20221;-70
2022/07/22 08:52:46;;;;;;;2.77;2.40;;;23.60;99.90;;;;;;5112187;28;20790;-71
2022/07/22 08:55:17;;;;;;;2.97;2.33;;;23.60;99.90;;;;;;5112617;28;20505;-73
2022/07/22 08:57:46;;;;;;;3.00;2.20;;;23.70;99.90;;;;;;5113882;28;20197;-71
2022/07/22 09:00:15;;;;;;;2.63;2.30;;;23.80;99.90;;;;;;5113597;28;20626;-69
2022/07/22 09:02:43;;;;;;;5.27;2.30;;;23.70;99.90;;;;;;5112790;28;20256;-69
2022/07/22 09:05:13;;;;;;;3.67;2.27;;;23.80;99.90;;;;;;5113011;28;20335;-71
2022/07/22 09:07:43;;;;;;;3.50;2.23;;;23.80;99.90;;;;;;5113082;28;20247;-68
2022/07/22 09:10:12;;;;;;;3.17;2.33;;;23.80;99.90;;;;;;5113011;28;20312;-68
2022/07/22 09:12:54;;;;;;;2.20;2.00;;;23.80;99.90;;;;;;5108897;28;20288;-70
2022/07/22 09:15:27;;;;;;;4.07;2.33;;;23.80;99.90;;;;;;5113089;28;20652;-65
2022/07/22 09:17:55;;;;;;;4.03;2.30;;;23.80;99.90;;;;;;5112978;28;20209;-65
2022/07/22 09:20:22;;;;;;;5.00;2.80;;;24.00;99.90;;;;;;5099362;28;20209;-65
2022/07/22 09:22:50;;;;;;;2.87;2.20;;;24.00;99.90;;;;;;5112615;28;20711;-65
2022/07/22 09:25:26;;;;;;;2.30;2.03;;;24.10;99.90;;;;;;5112575;28;20233;-65
2022/07/22 09:27:57;;;;;;;3.80;2.03;;;24.10;99.90;;;;;;5112566;28;20202;-66
2022/07/22 09:30:26;;;;;;;3.97;2.00;;;24.20;99.90;;;;;;5108042;28;20631;-65
2022/07/22 09:32:56;;;;;;;2.83;2.10;;;24.20;99.90;;;;;;5097356;28;20300;-65
2022/07/22 09:35:24;;;;;;;3.73;1.70;;;24.40;99.90;;;;;;5108203;28;20197;-65
2022/07/22 09:37:53;;;;;;;4.33;1.93;;;24.50;99.90;;;;;;5112473;28;20648;-64
2022/07/22 09:40:22;;;;;;;5.30;1.80;;;24.50;99.90;;;;;;5112621;28;20661;-65
2022/07/22 09:42:52;;;;;;;2.27;1.63;;;24.60;99.90;;;;;;5112259;28;20300;-66
2022/07/22 09:45:22;;;;;;;11.17;2.17;;;24.50;99.90;;;;;;5111970;28;20305;-65
2022/07/22 09:47:50;;;;;;;7.90;1.90;;;24.50;99.90;;;;;;5109780;28;20257;-65
2022/07/22 09:50:22;;;;;;;3.23;1.90;;;24.50;99.90;;;;;;5111399;28;20219;-65
2022/07/22 09:52:50;;;;;;;2.73;1.80;;;24.50;99.90;;;;;;5108300;28;20334;-65
2022/07/22 09:55:18;;;;;;;4.03;1.83;;;24.50;99.90;;;;;;5103280;28;20781;-65
2022/07/22 09:57:46;;;;;;;2.30;1.80;;;24.50;99.90;;;;;;5103113;28;20198;-67
2022/07/22 10:00:15;;;;;;;3.50;1.83;;;24.50;99.90;;;;;;5101805;28;20574;-65
2022/07/22 10:02:47;;;;;;;2.77;1.80;;;24.50;99.90;;;;;;5102144;28;20202;-64
2022/07/22 10:05:16;;;;;;;3.13;1.90;;;24.50;99.90;;;;;;5096699;28;20605;-66
2022/07/22 10:07:43;;;;;;;2.07;1.70;;;24.40;99.90;;;;;;5100635;28;20285;-66
2022/07/22 10:10:13;;;;;;;4.33;1.77;;;24.50;99.90;;;;;;5101804;28;20242;-65
2022/07/22 10:12:40;;;;;;;3.77;2.10;;;24.60;99.90;;;;;;5099660;28;20231;-65
2022/07/22 10:15:08;;;;;;;4.07;2.07;;;24.70;99.90;;;;;;5098539;28;20666;-65
2022/07/22 10:17:36;;;;;;;3.07;2.40;;;24.80;99.90;;;;;;5106230;28;20340;-65
2022/07/22 10:20:06;;;;;;;4.27;2.17;;;24.90;99.90;;;;;;5103437;28;20211;-65
2022/07/22 10:22:54;;;;;;;1.70;1.60;;;24.90;99.90;;;;;;5101454;28;20204;-65
2022/07/22 10:25:24;;;;;;;3.87;1.70;;;24.90;99.90;;;;;;5107017;28;20275;-65
2022/07/22 10:27:52;;;;;;;4.37;1.90;;;24.90;99.90;;;;;;5109371;28;20247;-65
2022/07/22 10:30:22;;;;;;;2.83;1.70;;;24.90;99.90;;;;;;5109543;28;20216;-65
2022/07/22 10:33:04;;;;;;;2.77;2.40;;;24.90;99.90;;;;;;5106789;28;20252;-66
2022/07/22 10:35:34;;;;;;;2.85;1.75;;;24.90;99.90;;;;;;5109768;28;20602;-65
2022/07/22 10:38:04;;;;;;;1.70;1.60;;;24.90;99.90;;;;;;5110947;28;20345;-65
2022/07/22 10:40:32;;;;;;;2.83;1.50;;;25.00;99.90;;;;;;5110960;28;20300;-65
2022/07/22 10:43:12;;;;;;;5.22;1.73;;;25.10;99.90;;;;;;5109481;28;21455;-65
2022/07/22 10:45:50;;;;;;;9.00;1.87;;;25.10;99.90;;;;;;5111461;28;20223;-65
2022/07/22 10:48:20;;;;;;;1.53;1.43;;;25.00;99.90;;;;;;5108874;28;20300;-64
2022/07/22 10:51:09;;;;;;;1.95;1.48;;;24.90;99.90;;;;;;5112205;28;20248;-67
2022/07/22 10:53:48;;;;;;;2.53;2.00;;;24.90;99.90;;;;;;5111660;28;20308;-65
2022/07/22 10:56:19;;;;;;;4.50;1.87;;;24.90;99.90;;;;;;5111577;28;20548;-65
2022/07/22 10:58:54;;;;;;;2.13;1.47;;;24.90;99.90;;;;;;5111497;28;20295;-65
2022/07/22 11:01:24;;;;;;;7.00;2.00;;;25.00;99.90;;;;;;5108581;28;20289;-65
2022/07/22 11:03:51;;;;;;;4.00;1.60;;;25.00;99.90;;;;;;5111212;28;20191;-65
2022/07/22 11:06:23;;;;;;;3.40;1.97;;;25.10;99.90;;;;;;5113773;28;20218;-65
2022/07/22 11:08:52;;;;;;;2.67;1.50;;;25.20;99.90;;;;;;5115394;28;20251;-66
2022/07/22 11:11:32;;;;;;;3.20;1.80;;;25.20;99.90;;;;;;5115393;28;20208;-68
2022/07/22 11:13:59;;;;;;;2.47;1.80;;;25.20;99.90;;;;;;5115323;28;20187;-64
2022/07/22 11:16:28;;;;;;;2.47;1.90;;;25.20;99.90;;;;;;5107994;28;20707;-65
2022/07/22 11:18:58;;;;;;;1.63;1.50;;;25.30;99.90;;;;;;5115136;28;20561;-66
2022/07/22 11:21:29;;;;;;;7.83;1.80;;;25.30;99.90;;;;;;5115474;28;20209;-65
2022/07/22 11:23:57;;;;;;;3.28;1.80;;;25.20;99.90;;;;;;5111219;28;20212;-68
2022/07/22 11:26:27;;;;;;;7.45;2.08;;;25.30;99.90;;;;;;5103782;28;20306;-70
2022/07/22 11:28:54;;;;;;;1.90;1.35;;;25.40;99.90;;;;;;5097101;28;20206;-69
2022/07/22 11:31:21;;;;;;;3.42;1.70;;;25.30;99.90;;;;;;5111893;28;20708;-71
2022/07/22 11:33:48;;;;;;;1.80;1.50;;;25.30;99.90;;;;;;5113901;28;20655;-69
2022/07/22 11:36:15;;;;;;;3.75;1.80;;;25.30;99.90;;;;;;5115636;28;20265;-70
2022/07/22 11:38:45;;;;;;;1.83;1.60;;;25.40;99.90;;;;;;5115049;28;20199;-69
2022/07/22 11:41:13;;;;;;;4.10;1.50;;;25.40;99.90;;;;;;5112923;28;20261;-71
2022/07/22 11:43:44;;;;;;;5.63;1.60;;;25.40;99.90;;;;;;5112325;28;20636;-70
2022/07/22 11:46:12;;;;;;;4.63;1.67;;;25.50;99.90;;;;;;5114382;28;20318;-68
2022/07/22 11:48:39;;;;;;;3.50;1.80;;;25.50;99.90;;;;;;5110545;28;20227;-69
2022/07/22 11:51:07;;;;;;;2.23;1.93;;;25.40;99.90;;;;;;5112443;28;20324;-70
2022/07/22 11:53:35;;;;;;;2.78;1.67;;;25.50;99.90;;;;;;5114871;28;20725;-70
2022/07/22 11:56:05;;;;;;;2.05;1.80;;;25.50;99.90;;;;;;5106036;28;20201;-71
2022/07/22 11:58:39;;;;;;;4.93;1.80;;;25.70;99.90;;;;;;5110366;28;20290;-71
2022/07/22 12:01:07;;;;;;;3.55;1.60;;;25.70;99.90;;;;;;5103100;28;20280;-71
2022/07/22 12:03:35;;;;;;;4.05;1.35;;;25.80;99.90;;;;;;5104677;28;20221;-71
2022/07/22 12:06:04;;;;;;;3.08;2.00;;;25.80;99.90;;;;;;5112467;28;20384;-72
2022/07/22 12:08:32;;;;;;;4.57;1.80;;;25.80;99.90;;;;;;5114684;28;20297;-71
2022/07/22 12:11:00;;;;;;;2.08;1.77;;;25.70;99.90;;;;;;5114344;28;20291;-71
2022/07/22 12:13:32;;;;;;;4.95;1.60;;;25.70;99.90;;;;;;5114849;28;20680;-72
2022/07/22 12:16:00;;;;;;;1.77;1.50;;;25.70;99.90;;;;;;5113277;28;20561;-71
2022/07/22 12:18:28;;;;;;;2.25;1.70;;;25.70;99.90;;;;;;5097037;28;20197;-72
2022/07/22 12:20:56;;;;;;;2.58;1.50;;;25.80;99.90;;;;;;5098091;28;20284;-73
2022/07/22 12:23:26;;;;;;;1.60;1.48;;;25.80;99.90;;;;;;5104473;28;20244;-71
2022/07/22 12:25:58;;;;;;;1.92;1.60;;;25.90;99.90;;;;;;5093840;28;20226;-71
2022/07/22 12:28:26;;;;;;;3.38;1.63;;;26.00;99.90;;;;;;5094308;28;20202;-72
2022/07/22 12:30:56;;;;;;;2.33;1.90;;;26.00;99.90;;;;;;5108906;28;20250;-72
2022/07/22 12:33:24;;;;;;;2.88;1.63;;;25.90;99.90;;;;;;5114232;28;20287;-71
2022/07/22 12:36:03;;;;;;;2.83;1.70;;;25.90;99.90;;;;;;5102554;28;20221;-70
2022/07/22 12:38:30;;;;;;;4.88;1.70;;;26.00;99.90;;;;;;5112425;28;20228;-71
2022/07/22 12:40:57;;;;;;;2.22;1.63;;;26.00;99.90;;;;;;5108970;28;20214;-71
2022/07/22 12:43:27;;;;;;;3.08;1.70;;;26.00;99.90;;;;;;5109834;28;20213;-70
2022/07/22 12:46:03;;;;;;;3.63;1.50;;;26.00;99.90;;;;;;5113625;28;20282;-71
2022/07/22 12:48:30;;;;;;;2.45;1.45;;;26.00;99.90;;;;;;5112886;28;20191;-71
2022/07/22 12:50:59;;;;;;;6.38;2.92;;;26.00;99.90;;;;;;5108087;28;20302;-71
2022/07/22 12:53:29;;;;;;;5.88;2.17;;;26.00;99.90;;;;;;5109311;27;20815;-71
2022/07/22 12:55:58;;;;;;;1.92;1.45;;;26.00;99.90;;;;;;5108828;28;20249;-70
2022/07/22 12:58:26;;;;;;;5.68;1.90;;;26.00;99.90;;;;;;5101937;28;20194;-70
2022/07/22 13:00:57;;;;;;;10.32;1.90;;;26.00;99.90;;;;;;5101313;28;20240;-70
2022/07/22 13:03:25;;;;;;;2.30;1.60;;;26.00;99.90;;;;;;5113647;28;20441;-70
2022/07/22 13:05:55;;;;;;;4.25;2.05;;;25.90;99.90;;;;;;5113418;28;20247;-69
2022/07/22 13:08:22;;;;;;;2.92;1.52;;;25.80;99.90;;;;;;5113394;28;20295;-69
2022/07/22 13:10:49;;;;;;;2.05;1.52;;;25.80;99.90;;;;;;5106777;28;20209;-69
2022/07/22 13:13:16;;;;;;;4.05;1.85;;;25.80;99.90;;;;;;5113107;28;20288;-68
2022/07/22 13:15:43;;;;;;;4.22;1.55;;;25.80;99.90;;;;;;5103273;27;20208;-66
2022/07/22 13:18:11;;;;;;;2.22;1.50;;;25.70;99.90;;;;;;5113068;28;20216;-66
2022/07/22 13:20:39;;;;;;;3.13;1.73;;;25.70;99.90;;;;;;5119455;27;20353;-67
2022/07/22 13:23:05;;;;;;;4.00;2.85;;;25.70;99.90;;;;;;5112251;27;20214;-66
2022/07/22 13:25:32;;;;;;;2.22;1.50;;;25.70;99.90;;;;;;5112256;28;20770;-66
2022/07/22 13:28:00;;;;;;;3.58;1.73;;;25.70;99.90;;;;;;5111969;28;20212;-67
2022/07/22 13:30:27;;;;;;;2.47;1.50;;;25.70;99.90;;;;;;5112848;28;20293;-67
2022/07/22 13:32:54;;;;;;;1.92;1.50;;;25.70;99.90;;;;;;5111235;28;20634;-69
2022/07/22 13:35:23;;;;;;;1.52;1.40;;;25.80;99.90;;;;;;5112693;28;20209;-67
2022/07/22 13:37:50;;;;;;;4.97;2.85;;;25.80;99.90;;;;;;5112818;28;20276;-68
2022/07/22 13:40:17;;;;;;;4.63;1.52;;;25.80;99.90;;;;;;5113068;28;20270;-67
2022/07/22 13:42:44;;;;;;;4.55;1.90;;;25.80;99.90;;;;;;5112873;28;20687;-66
2022/07/22 13:45:12;;;;;;;4.13;1.60;;;25.90;99.90;;;;;;5113297;28;20209;-68
2022/07/22 13:47:41;;;;;;;4.50;1.45;;;25.90;99.90;;;;;;5110751;28;20205;-66
2022/07/22 13:50:09;;;;;;;2.42;1.52;;;26.00;99.90;;;;;;5092618;28;20203;-70
2022/07/22 13:52:37;;;;;;;1.73;1.63;;;26.00;99.90;;;;;;5111690;28;20337;-70
2022/07/22 13:55:05;;;;;;;2.20;1.55;;;26.10;99.90;;;;;;5111489;28;20631;-71
2022/07/22 13:57:32;;;;;;;1.50;1.40;;;26.10;99.90;;;;;;5110626;28;20284;-71
2022/07/22 13:59:59;;;;;;;1.58;1.40;;;26.10;99.80;;;;;;5110769;28;20209;-69
2022/07/22 14:02:26;;;;;;;2.45;1.80;;;26.10;99.90;;;;;;5110068;28;20203;-69
2022/07/22 14:04:53;;;;;;;1.92;1.45;;;26.00;99.90;;;;;;5112086;28;20300;-70
2022/07/22 14:07:19;;;;;;;2.22;1.65;;;26.00;99.60;;;;;;5109993;28;20334;-69
2022/07/22 14:09:48;;;;;;;3.13;1.70;;;26.00;99.90;;;;;;5111689;28;20210;-69
2022/07/22 14:12:16;;;;;;;6.35;1.52;;;26.10;99.90;;;;;;5112606;28;20244;-72
2022/07/22 14:14:43;;;;;;;3.08;1.60;;;26.20;99.90;;;;;;5112449;28;20292;-70
2022/07/22 14:17:10;;;;;;;5.90;2.55;;;26.20;99.90;;;;;;5110822;28;20198;-70
2022/07/22 14:19:37;;;;;;;2.22;1.70;;;26.20;99.90;;;;;;5112417;28;20414;-69
2022/07/22 14:22:04;;;;;;;1.90;1.55;;;26.10;99.80;;;;;;5110884;28;20210;-68
2022/07/22 14:24:31;;;;;;;2.20;1.60;;;26.10;99.90;;;;;;5112397;28;20731;-69
2022/07/22 14:26:59;;;;;;;5.38;2.10;;;26.10;99.90;;;;;;5112306;28;20773;-69
2022/07/22 14:29:26;;;;;;;2.80;1.55;;;26.10;99.90;;;;;;5101033;28;20207;-69
2022/07/22 14:31:53;;;;;;;1.52;1.42;;;26.10;99.90;;;;;;5107598;28;20209;-70
2022/07/22 14:34:20;;;;;;;11.10;2.00;;;26.10;99.90;;;;;;5108048;28;20204;-71
2022/07/22 14:36:47;;;;;;;2.03;1.60;;;26.10;99.90;;;;;;5111637;28;20203;-71
2022/07/22 14:39:14;;;;;;;1.58;1.48;;;26.10;99.90;;;;;;5109111;28;20205;-71
2022/07/22 14:41:41;;;;;;;2.83;1.63;;;26.00;99.60;;;;;;5107089;28;20296;-71
2022/07/22 14:44:09;;;;;;;1.50;1.40;;;26.00;99.40;;;;;;5111975;28;20638;-70
2022/07/22 14:46:36;;;;;;;2.05;1.50;;;26.00;99.60;;;;;;5109475;28;20225;-73
2022/07/22 14:49:03;;;;;;;1.83;1.58;;;25.90;99.40;;;;;;5110103;28;20291;-71
2022/07/22 14:51:30;;;;;;;3.42;1.65;;;25.90;99.60;;;;;;5109967;28;20295;-72
2022/07/22 14:53:57;;;;;;;6.13;1.60;;;25.80;99.50;;;;;;5110235;28;20246;-72
2022/07/22 14:56:24;;;;;;;4.00;1.52;;;25.80;99.50;;;;;;5109964;28;20293;-71
2022/07/22 14:58:50;;;;;;;1.60;1.50;;;25.80;99.40;;;;;;5110433;28;20300;-72
2022/07/22 15:01:19;;;;;;;4.47;1.52;;;25.80;99.20;;;;;;5110549;28;20642;-72
2022/07/22 15:03:46;;;;;;;3.55;1.48;;;25.90;99.20;;;;;;5111256;28;20235;-72
2022/07/22 15:06:13;;;;;;;1.88;1.60;;;25.90;99.50;;;;;;5111765;28;20227;-71
2022/07/22 15:08:40;;;;;;;3.58;1.60;;;25.90;99.70;;;;;;5111899;28;20237;-72
2022/07/22 15:11:07;;;;;;;5.13;1.75;;;25.90;99.90;;;;;;5111774;28;20229;-71
2022/07/22 15:13:34;;;;;;;6.03;1.70;;;25.90;99.90;;;;;;5111999;28;20202;-72
2022/07/22 15:16:01;;;;;;;3.22;1.60;;;25.90;99.90;;;;;;5111983;28;20574;-72
2022/07/22 15:18:29;;;;;;;2.30;1.50;;;26.00;99.80;;;;;;5112321;28;20227;-73
2022/07/22 15:20:56;;;;;;;2.85;1.67;;;26.00;99.70;;;;;;5112959;28;20297;-72
2022/07/22 15:23:25;;;;;;;3.30;1.50;;;25.90;99.90;;;;;;5112289;28;20685;-72
2022/07/22 15:25:53;;;;;;;2.60;1.67;;;26.00;99.90;;;;;;5112045;28;20210;-72
2022/07/22 15:28:20;;;;;;;3.80;1.73;;;25.90;99.90;;;;;;5112118;28;20206;-71
2022/07/22 15:30:47;;;;;;;2.60;1.58;;;25.90;99.90;;;;;;5112273;28;20202;-71
2022/07/22 15:33:14;;;;;;;3.63;1.60;;;26.00;99.90;;;;;;5112350;28;20414;-72
2022/07/22 15:35:43;;;;;;;4.47;1.70;;;26.00;99.80;;;;;;5112498;28;20233;-71
2022/07/22 15:38:09;;;;;;;1.67;1.50;;;26.00;99.90;;;;;;5112518;28;20232;-70
2022/07/22 15:40:38;;;;;;;6.32;1.95;;;25.90;99.80;;;;;;5112116;28;20239;-72
2022/07/22 15:43:05;;;;;;;4.53;1.60;;;25.90;99.60;;;;;;5112289;28;20210;-71